Time;durP1;ratioP1;P1;durP2;ratioP2;P2;SDS_P1;SDS_P2;PMS_P1;PMS_P2;Temp;Humidity;BMP_temperature;BMP_pressure;BME280_temperature;BME280_humidity;BME280_pressure;Samples;Min_cycle;Max_cycle;Signal;HPM_P1;HPM_P2
2021/08/16 00:00:04;;;;;;;25.70;6.43;;;20.40;99.90;;;20.82;74.27;100834.66;5073203;28;20123;-73
2021/08/16 00:02:34;;;;;;;18.92;6.05;;;20.40;99.90;;;20.82;74.28;100834.66;5073409;28;20033;-73
2021/08/16 00:05:03;;;;;;;31.23;6.80;;;20.40;99.90;;;20.91;74.09;100823.47;5073279;28;20490;-74
2021/08/16 00:07:32;;;;;;;25.70;6.22;;;20.50;99.90;;;20.96;73.95;100832.19;5073065;28;20126;-73
2021/08/16 00:10:00;;;;;;;21.25;5.97;;;20.50;99.90;;;20.97;73.97;100834.81;5073501;28;20040;-73
2021/08/16 00:12:28;;;;;;;21.67;6.55;;;20.60;99.90;;;20.93;74.14;100825.16;5073493;28;20123;-74
2021/08/16 00:14:57;;;;;;;17.60;6.43;;;20.50;99.90;;;20.95;74.17;100815.19;5072969;28;20036;-74
2021/08/16 00:17:27;;;;;;;20.98;6.43;;;20.60;99.90;;;20.96;74.22;100830.41;5073252;28;20044;-74
2021/08/16 00:19:55;;;;;;;24.58;6.40;;;20.60;99.90;;;20.91;74.33;100826.16;5073215;28;20147;-74
2021/08/16 00:22:24;;;;;;;21.25;6.28;;;20.50;99.90;;;20.96;74.10;100808.00;5073177;28;20069;-73
2021/08/16 00:24:52;;;;;;;34.50;6.63;;;20.60;99.90;;;21.00;74.21;100829.28;5072921;28;20036;-73
2021/08/16 00:27:20;;;;;;;19.02;6.20;;;20.60;99.90;;;21.06;74.14;100820.09;5073114;28;20544;-74
2021/08/16 00:29:49;;;;;;;20.15;6.10;;;20.60;99.90;;;21.00;74.23;100823.03;5076855;28;20445;-73
2021/08/16 00:32:17;;;;;;;22.23;5.93;;;20.60;99.90;;;21.07;74.04;100822.72;5059097;28;20056;-74
2021/08/16 00:34:47;;;;;;;16.15;5.93;;;20.70;99.90;;;21.13;73.76;100818.84;5077080;28;20127;-73
2021/08/16 00:37:15;;;;;;;17.70;5.87;;;20.70;99.90;;;21.11;73.74;100818.94;5077362;28;20052;-74
2021/08/16 00:39:44;;;;;;;17.15;5.75;;;20.70;99.90;;;21.05;74.01;100811.16;5077432;28;20045;-74
2021/08/16 00:42:12;;;;;;;18.05;5.82;;;20.70;99.90;;;21.08;74.14;100819.06;5076977;28;20076;-73
2021/08/16 00:44:41;;;;;;;21.55;6.10;;;20.70;99.90;;;21.02;74.15;100818.50;5076645;28;20455;-74
2021/08/16 00:47:10;;;;;;;18.92;6.13;;;20.60;99.90;;;21.02;74.29;100815.81;5076576;28;20098;-74
2021/08/16 00:49:38;;;;;;;21.17;6.78;;;20.60;99.90;;;21.08;74.07;100819.06;5058890;28;20143;-73
2021/08/16 00:52:08;;;;;;;15.43;5.78;;;20.60;99.90;;;21.12;74.19;100820.66;5076456;28;20048;-74
2021/08/16 00:54:38;;;;;;;18.08;5.75;;;20.70;99.90;;;21.13;73.97;100825.09;5076719;28;20398;-74
2021/08/16 00:57:07;;;;;;;19.02;6.00;;;20.70;99.90;;;21.20;73.76;100817.59;5076344;28;20521;-74
2021/08/16 00:59:36;;;;;;;17.92;5.70;;;20.70;99.90;;;21.10;73.73;100816.31;5058607;28;20052;-73
2021/08/16 01:02:05;;;;;;;14.57;5.80;;;20.70;99.90;;;21.20;73.58;100815.78;5076362;28;20526;-73
2021/08/16 01:04:34;;;;;;;17.08;5.22;;;20.70;99.90;;;21.21;73.34;100825.63;5076259;28;20048;-74
2021/08/16 01:07:02;;;;;;;16.58;5.25;;;20.70;99.90;;;21.21;72.97;100812.16;5076101;28;20478;-74
2021/08/16 01:09:32;;;;;;;19.45;5.95;;;20.80;99.90;;;21.24;73.01;100824.56;5076389;28;20044;-73
2021/08/16 01:12:01;;;;;;;18.13;6.68;;;20.80;99.90;;;21.18;73.35;100816.78;5076157;28;20652;-73
2021/08/16 01:14:29;;;;;;;18.88;5.55;;;20.80;99.90;;;21.26;73.23;100828.94;5076023;28;20045;-74
2021/08/16 01:16:59;;;;;;;17.85;5.65;;;20.80;99.90;;;21.08;73.66;100815.53;5076273;28;20066;-73
2021/08/16 01:19:27;;;;;;;19.15;6.18;;;20.70;99.90;;;21.21;73.58;100819.34;5075911;28;20049;-74
2021/08/16 01:21:55;;;;;;;14.85;5.40;;;20.80;99.90;;;21.28;73.22;100810.91;5076518;28;20079;-73
2021/08/16 01:24:24;;;;;;;15.70;5.75;;;20.80;99.90;;;21.23;73.47;100807.56;5075850;28;20132;-73
2021/08/16 01:26:53;;;;;;;18.40;6.22;;;20.80;99.90;;;21.17;73.54;100815.06;5058114;28;20051;-73
2021/08/16 01:29:23;;;;;;;18.75;6.25;;;20.80;99.90;;;21.19;73.43;100811.34;5075777;28;20477;-74
2021/08/16 01:32:00;;;;;;;15.98;6.00;;;20.70;99.90;;;21.24;73.31;100803.03;5075774;28;20055;-74
2021/08/16 01:34:29;;;;;;;19.65;5.90;;;20.80;99.90;;;21.13;73.24;100789.25;5075672;28;20048;-73
2021/08/16 01:36:58;;;;;;;16.25;5.65;;;20.80;99.90;;;21.11;73.61;100812.66;5075645;28;20068;-73
2021/08/16 01:39:27;;;;;;;15.32;5.45;;;20.70;99.90;;;21.26;73.57;100814.59;5075299;28;20094;-74
2021/08/16 01:41:57;;;;;;;22.05;6.63;;;20.80;99.90;;;21.24;73.70;100809.31;5075787;28;20472;-74
2021/08/16 01:44:26;;;;;;;18.13;5.43;;;20.80;99.90;;;21.28;73.75;100800.13;5075569;28;20478;-74
2021/08/16 01:46:54;;;;;;;15.77;6.60;;;20.80;99.90;;;21.27;73.80;100806.44;5075655;28;20132;-74
2021/08/16 01:49:23;;;;;;;15.93;5.28;;;20.80;99.90;;;21.22;73.62;100803.13;5075796;28;20135;-73
2021/08/16 01:51:51;;;;;;;18.63;5.40;;;20.80;99.90;;;21.26;73.73;100802.03;5075388;28;20048;-73
2021/08/16 01:54:20;;;;;;;12.98;5.30;;;20.80;99.90;;;21.35;73.35;100800.72;5075325;28;20044;-73
2021/08/16 01:56:49;;;;;;;19.90;5.88;;;20.90;99.90;;;21.37;73.62;100804.16;5075295;28;20098;-74
2021/08/16 01:59:19;;;;;;;17.33;5.60;;;20.90;99.90;;;21.42;73.31;100803.03;5075255;28;20044;-74
2021/08/16 02:01:47;;;;;;;17.35;5.45;;;21.00;99.90;;;21.34;73.53;100802.53;5075252;28;20436;-73
2021/08/16 02:04:16;;;;;;;20.73;5.82;;;20.90;99.90;;;21.33;73.57;100808.00;5075169;28;20041;-74
2021/08/16 02:06:44;;;;;;;14.27;5.43;;;20.90;99.90;;;21.25;73.72;100797.56;5075013;28;20043;-74
2021/08/16 02:09:12;;;;;;;13.95;5.00;;;20.90;99.90;;;21.24;73.88;100797.66;5075078;28;20075;-74
2021/08/16 02:11:41;;;;;;;16.30;5.90;;;20.80;99.90;;;21.29;73.77;100809.94;5075029;28;20086;-74
2021/08/16 02:14:09;;;;;;;21.95;5.85;;;20.80;99.90;;;21.18;73.87;100808.72;5074983;28;20071;-74
2021/08/16 02:16:39;;;;;;;25.50;7.00;;;20.80;99.90;;;21.16;73.89;100808.81;5057181;28;20459;-73
2021/08/16 02:19:08;;;;;;;16.50;5.57;;;20.80;99.90;;;21.16;74.27;100806.13;5075183;28;20053;-73
2021/08/16 02:21:37;;;;;;;20.15;5.38;;;20.70;99.90;;;21.16;74.04;100803.41;5075056;28;20426;-73
2021/08/16 02:24:05;;;;;;;15.57;5.97;;;20.70;99.90;;;21.24;74.02;100803.03;5075047;28;20032;-73
2021/08/16 02:26:34;;;;;;;17.48;5.18;;;20.80;99.90;;;21.24;74.14;100801.22;5074642;28;20048;-73
2021/08/16 02:29:02;;;;;;;18.00;6.32;;;20.80;99.90;;;21.20;74.06;100805.00;5075211;28;20079;-74
2021/08/16 02:31:31;;;;;;;20.70;5.22;;;20.80;99.90;;;21.17;74.11;100802.50;5074573;28;20048;-73
2021/08/16 02:34:00;;;;;;;18.50;6.05;;;20.80;99.90;;;21.18;74.13;100808.72;5074591;28;20123;-73
2021/08/16 02:36:29;;;;;;;18.93;5.73;;;20.70;99.90;;;21.16;74.29;100819.56;5074522;28;20064;-73
2021/08/16 02:38:57;;;;;;;17.15;5.57;;;20.70;99.90;;;21.20;74.44;100812.22;5074367;28;20044;-74
2021/08/16 02:41:26;;;;;;;16.55;5.35;;;20.70;99.90;;;21.11;74.90;100807.28;5056761;28;20553;-73
2021/08/16 02:43:54;;;;;;;16.67;5.22;;;20.70;99.90;;;21.02;75.27;100803.22;5056788;28;20463;-73
2021/08/16 02:46:22;;;;;;;17.23;5.25;;;20.60;99.90;;;21.16;75.00;100797.16;5056540;28;20087;-73
2021/08/16 02:48:51;;;;;;;14.15;5.25;;;20.60;99.90;;;21.02;74.90;100786.22;5074426;28;20577;-73
2021/08/16 02:51:21;;;;;;;15.15;5.07;;;20.70;99.90;;;21.10;74.94;100801.03;5073695;28;20075;-74
2021/08/16 02:53:50;;;;;;;19.30;5.55;;;20.70;99.90;;;21.13;74.91;100805.41;5074423;28;20465;-73
2021/08/16 02:56:18;;;;;;;12.18;4.93;;;20.70;99.90;;;20.97;75.36;100797.16;5074506;28;20090;-74
2021/08/16 02:58:46;;;;;;;18.58;5.80;;;20.60;99.90;;;20.96;75.18;100802.63;5074054;28;20483;-74
2021/08/16 03:01:15;;;;;;;14.65;4.97;;;20.60;99.90;;;20.97;75.04;100804.34;5056363;28;20083;-74
2021/08/16 03:03:43;;;;;;;16.50;5.15;;;20.60;99.90;;;20.92;75.24;100796.53;5074272;28;20508;-74
2021/08/16 03:06:12;;;;;;;21.42;5.78;;;20.50;99.90;;;20.96;75.19;100791.84;5073861;28;20124;-74
2021/08/16 03:08:41;;;;;;;14.10;5.15;;;20.50;99.90;;;21.02;74.96;100789.75;5056058;28;20052;-74
2021/08/16 03:11:10;;;;;;;14.07;4.60;;;20.60;99.90;;;20.90;74.82;100773.31;5073850;28;20493;-73
2021/08/16 03:13:38;;;;;;;12.90;5.28;;;20.60;99.90;;;21.04;74.37;100792.41;5073791;28;20044;-73
2021/08/16 03:16:07;;;;;;;13.25;5.03;;;20.60;99.90;;;21.10;74.35;100802.88;5056117;28;20456;-74
2021/08/16 03:18:35;;;;;;;15.93;5.18;;;20.60;99.90;;;21.11;74.22;100799.22;5056097;28;20052;-73
2021/08/16 03:21:04;;;;;;;13.90;4.60;;;20.70;99.90;;;21.10;74.41;100797.50;5073672;28;20035;-74
2021/08/16 03:23:32;;;;;;;16.40;5.10;;;20.70;99.90;;;21.04;74.38;100789.72;5073602;28;20049;-73
2021/08/16 03:26:02;;;;;;;12.35;5.32;;;20.60;99.90;;;21.08;74.21;100783.25;5073550;28;20558;-73
2021/08/16 03:28:30;;;;;;;15.75;5.43;;;20.60;99.90;;;20.98;74.67;100781.91;5073719;28;20052;-73
2021/08/16 03:30:59;;;;;;;14.35;5.30;;;20.60;99.90;;;21.04;74.70;100789.72;5073778;28;20401;-74
2021/08/16 03:33:27;;;;;;;17.30;5.70;;;20.60;99.90;;;21.14;74.44;100777.53;5074032;28;20090;-73
2021/08/16 03:35:55;;;;;;;15.20;5.22;;;20.70;99.90;;;21.04;74.62;100773.56;5073678;28;20044;-74
2021/08/16 03:38:24;;;;;;;15.40;5.20;;;20.60;99.90;;;21.08;74.42;100780.53;5073420;28;20090;-73
2021/08/16 03:40:52;;;;;;;13.25;5.10;;;20.60;99.90;;;20.91;74.86;100767.88;5073685;28;20044;-74
2021/08/16 03:43:22;;;;;;;20.35;5.93;;;20.60;99.90;;;21.01;74.84;100779.09;5073873;28;20048;-74
2021/08/16 03:45:50;;;;;;;17.97;5.67;;;20.50;99.90;;;20.96;74.72;100775.72;5073338;28;20080;-74
2021/08/16 03:48:19;;;;;;;16.58;5.40;;;20.60;99.90;;;20.95;74.99;100776.66;5073235;28;20082;-73
2021/08/16 03:50:47;;;;;;;19.00;5.82;;;20.50;99.90;;;20.85;75.20;100776.22;5073487;28;20040;-74
2021/08/16 03:53:16;;;;;;;13.45;5.25;;;20.50;99.90;;;20.53;75.74;100750.91;5073805;28;20068;-74
2021/08/16 03:55:45;;;;;;;18.75;5.15;;;20.30;99.90;;;20.67;75.68;100756.47;5073481;28;20044;-74
2021/08/16 03:58:13;;;;;;;15.18;4.95;;;20.30;99.90;;;20.67;75.97;100769.91;5073402;28;20052;-74
2021/08/16 04:00:43;;;;;;;13.90;5.25;;;20.20;99.90;;;20.63;76.08;100762.09;5055367;28;20048;-73
2021/08/16 04:03:12;;;;;;;17.67;5.53;;;20.20;99.90;;;20.51;76.63;100760.84;5073694;28;20074;-70
2021/08/16 04:05:41;;;;;;;18.30;5.13;;;20.10;99.90;;;20.47;76.89;100752.97;5073116;28;20040;-71
2021/08/16 04:08:09;;;;;;;12.15;4.78;;;20.00;99.90;;;20.59;76.74;100768.53;5072913;28;20072;-66
2021/08/16 04:10:37;;;;;;;13.40;5.47;;;20.10;99.90;;;20.67;76.36;100761.84;5073062;28;20068;-69
2021/08/16 04:13:06;;;;;;;14.95;5.00;;;20.20;99.90;;;20.57;76.53;100757.88;5073582;28;20078;-68
2021/08/16 04:15:34;;;;;;;13.05;5.18;;;20.10;99.90;;;20.61;76.19;100756.75;5073575;28;20059;-69
2021/08/16 04:18:05;;;;;;;17.38;5.82;;;20.10;99.90;;;20.60;75.89;100752.34;5073514;28;20072;-71
2021/08/16 04:20:33;;;;;;;13.43;5.30;;;20.20;99.90;;;20.64;75.85;100759.31;5073488;28;20102;-71
2021/08/16 04:23:02;;;;;;;11.85;4.78;;;20.20;99.90;;;20.61;75.81;100761.28;5072860;28;20048;-73
2021/08/16 04:25:30;;;;;;;11.52;5.60;;;20.20;99.90;;;20.62;76.02;100758.50;5073125;28;20055;-72
2021/08/16 04:27:59;;;;;;;12.77;5.20;;;20.30;99.90;;;20.44;76.38;100755.84;5072804;28;20045;-72
2021/08/16 04:30:27;;;;;;;18.10;5.28;;;20.10;99.90;;;20.48;76.53;100749.34;5072872;28;20094;-72
2021/08/16 04:32:55;;;;;;;15.77;5.10;;;20.10;99.90;;;20.54;76.38;100760.69;5072813;28;20045;-72
2021/08/16 04:35:25;;;;;;;11.10;4.47;;;20.10;99.90;;;20.57;76.19;100752.50;5072834;28;20048;-73
2021/08/16 04:37:53;;;;;;;17.00;5.87;;;20.20;99.90;;;20.58;76.54;100758.72;5055083;28;20080;-73
2021/08/16 04:40:22;;;;;;;15.88;5.32;;;20.20;99.90;;;20.58;76.84;100772.16;5073188;28;20700;-73
2021/08/16 04:42:51;;;;;;;12.70;5.07;;;20.20;99.90;;;20.35;78.67;100780.41;5054941;28;20052;-73
2021/08/16 04:45:19;;;;;;;9.20;4.65;;;20.00;99.90;;;19.87;81.27;100786.16;5073012;28;20040;-73
2021/08/16 04:47:48;;;;;;;7.45;3.97;;;19.60;99.90;;;19.86;82.01;100792.44;5072422;28;20080;-73
2021/08/16 04:50:18;;;;;;;10.95;4.00;;;19.50;99.90;;;19.84;82.46;100794.31;5073171;28;20052;-73
2021/08/16 04:52:48;;;;;;;10.00;4.32;;;19.50;99.90;;;19.64;83.44;100781.78;5072631;28;20421;-72
2021/08/16 04:55:17;;;;;;;9.55;4.85;;;19.30;99.90;;;19.75;83.65;100784.00;5072716;28;20041;-73
2021/08/16 04:57:45;;;;;;;7.30;4.25;;;19.40;99.90;;;19.73;84.02;100788.56;5072611;28;20073;-73
2021/08/16 05:00:18;;;;;;;7.15;4.10;;;19.40;99.90;;;19.55;84.45;100784.00;5054872;28;20075;-73
2021/08/16 05:02:47;;;;;;;10.30;4.35;;;19.20;99.90;;;19.53;84.74;100780.50;5072534;28;20045;-72
2021/08/16 05:05:16;;;;;;;8.80;4.40;;;19.20;99.90;;;19.48;85.51;100782.50;5072799;28;20127;-73
2021/08/16 05:07:50;;;;;;;8.77;4.60;;;19.10;99.90;;;19.51;85.36;100780.53;5072587;28;20452;-74
2021/08/16 05:10:20;;;;;;;8.93;4.20;;;19.10;99.90;;;19.44;86.58;100786.22;5072957;28;20087;-74
2021/08/16 05:12:50;;;;;;;9.27;4.47;;;19.10;99.90;;;19.41;86.75;100783.69;5072457;28;20051;-74
2021/08/16 05:15:18;;;;;;;8.40;4.32;;;19.10;99.90;;;19.19;87.25;100781.00;5076011;28;20486;-74
2021/08/16 05:17:48;;;;;;;7.35;4.13;;;18.90;99.90;;;19.09;87.48;100781.41;5058296;28;20041;-74
2021/08/16 05:20:19;;;;;;;8.40;4.23;;;18.70;99.90;;;19.14;88.29;100780.31;5058293;28;20067;-74
2021/08/16 05:22:49;;;;;;;;;;;18.80;99.90;;;19.17;88.66;100782.88;5076376;28;20106;-74
2021/08/16 05:25:20;;;;;;;11.88;4.30;;;18.80;99.90;;;19.06;88.14;100781.56;5076025;28;20016;-73
2021/08/16 05:27:49;;;;;;;9.93;4.40;;;18.80;99.90;;;18.13;89.14;100697.69;5075935;28;20056;-74
2021/08/16 05:30:19;;;;;;;8.77;4.72;;;18.50;99.90;;;18.47;89.99;100774.06;5076047;28;20052;-74
2021/08/16 05:32:47;;;;;;;9.90;5.07;;;18.30;99.90;;;18.38;90.24;100755.63;5076256;28;20127;-74
2021/08/16 05:35:17;;;;;;;10.57;5.50;;;18.20;99.90;;;18.38;91.01;100790.44;5075692;28;20555;-74
2021/08/16 05:37:45;;;;;;;8.93;5.60;;;18.10;99.90;;;18.51;91.73;100801.59;5075495;28;20044;-74
2021/08/16 05:40:16;;;;;;;11.85;5.20;;;18.10;99.90;;;18.17;91.94;100759.13;5075494;28;20086;-74
2021/08/16 05:42:44;;;;;;;14.57;6.25;;;18.10;99.90;;;18.37;92.54;100795.88;5075835;28;20128;-74
2021/08/16 05:45:13;;;;;;;14.38;6.40;;;18.10;99.90;;;18.43;92.23;100795.66;5075572;28;20094;-74
2021/08/16 05:47:42;;;;;;;13.95;5.97;;;18.10;99.90;;;18.31;91.98;100798.78;5075503;28;20052;-73
2021/08/16 05:50:11;;;;;;;13.43;5.80;;;18.00;99.90;;;18.31;91.96;100804.97;5057487;28;20068;-74
2021/08/16 05:52:40;;;;;;;13.88;6.10;;;18.00;99.90;;;18.37;91.85;100796.72;5057679;28;20433;-74
2021/08/16 05:55:09;;;;;;;14.57;6.18;;;18.00;99.90;;;18.21;92.09;100803.59;5075972;28;20102;-74
2021/08/16 05:57:39;;;;;;;13.50;5.38;;;17.90;99.90;;;18.23;91.75;100796.38;5075821;28;20456;-74
2021/08/16 06:00:09;;;;;;;14.68;6.13;;;18.00;99.90;;;18.37;91.31;100814.63;5076639;28;20053;-74
2021/08/16 06:02:38;;;;;;;13.43;5.65;;;18.00;99.90;;;18.34;91.72;100826.31;5059051;28;20102;-75
2021/08/16 06:05:08;;;;;;;11.25;5.40;;;18.00;99.90;;;18.39;91.68;100818.97;5075826;28;20050;-76
2021/08/16 06:07:37;;;;;;;11.02;5.43;;;18.10;99.90;;;18.17;91.21;100807.31;5076905;28;20119;-76
2021/08/16 06:10:07;;;;;;;14.25;5.90;;;18.00;99.90;;;18.30;91.66;100830.03;5080781;28;20090;-77
2021/08/16 06:12:36;;;;;;;;;;;18.00;99.90;;;18.40;91.34;100823.41;5078640;28;20113;-77
2021/08/16 06:15:08;;;;;;;12.65;5.70;;;18.00;99.90;;;18.25;90.88;100826.66;5076568;28;19966;-76
2021/08/16 06:17:38;;;;;;;15.40;6.45;;;17.90;99.90;;;18.11;91.84;100828.94;5075925;28;20132;-74
2021/08/16 06:20:10;;;;;;;14.70;5.93;;;17.80;99.90;;;18.15;91.93;100846.66;5075409;28;20051;-77
2021/08/16 06:22:39;;;;;;;13.32;5.63;;;17.80;99.90;;;18.10;92.30;100840.56;5075782;28;20072;-75
2021/08/16 06:25:09;;;;;;;12.07;5.68;;;17.80;99.90;;;18.27;92.12;100838.19;5074000;28;20040;-75
2021/08/16 06:27:37;;;;;;;13.45;6.28;;;17.90;99.90;;;18.25;91.92;100847.19;5057436;28;20079;-76
2021/08/16 06:30:09;;;;;;;13.38;6.65;;;17.90;99.90;;;18.13;92.49;100850.31;5075065;28;20044;-76
2021/08/16 06:32:38;;;;;;;15.55;6.55;;;17.80;99.90;;;18.07;92.77;100864.78;5075204;28;20056;-76
2021/08/16 06:35:08;;;;;;;11.45;5.88;;;17.70;99.90;;;18.17;92.59;100855.50;5057056;28;20444;-76
2021/08/16 06:37:37;;;;;;;15.68;5.80;;;17.80;99.90;;;17.97;92.90;100849.97;5074849;28;20068;-75
2021/08/16 06:40:07;;;;;;;16.58;6.50;;;17.80;99.90;;;17.95;92.87;100857.19;5074605;28;20064;-76
2021/08/16 06:42:35;;;;;;;12.07;6.22;;;17.70;99.90;;;17.78;92.38;100862.25;5074861;28;20469;-76
2021/08/16 06:45:05;;;;;;;15.00;6.20;;;17.50;99.90;;;17.64;92.07;100869.84;5074926;28;20041;-75
2021/08/16 06:47:35;;;;;;;19.25;6.35;;;17.40;99.90;;;17.53;91.60;100878.25;5074611;28;20048;-75
2021/08/16 06:50:04;;;;;;;13.05;6.38;;;17.30;99.90;;;17.44;91.88;100882.97;5074443;28;20044;-74
2021/08/16 06:52:33;;;;;;;12.65;6.30;;;17.10;99.90;;;17.58;91.50;100892.31;5074581;28;20041;-73
2021/08/16 06:55:03;;;;;;;13.48;6.32;;;17.20;99.90;;;17.71;91.02;100898.16;5074524;28;20044;-73
2021/08/16 06:57:34;;;;;;;9.63;6.43;;;17.40;99.90;;;17.58;90.79;100900.34;5074545;28;20045;-73
2021/08/16 07:00:03;;;;;;;12.60;6.18;;;17.30;99.90;;;17.50;89.93;100883.66;5074372;28;20274;-73
2021/08/16 07:02:33;;;;;;;9.32;5.60;;;17.30;99.90;;;17.48;88.86;100898.91;5074562;28;20068;-73
2021/08/16 07:05:06;;;;;;;12.10;5.37;;;17.20;99.90;;;17.36;87.89;100891.25;5074038;28;20456;-73
2021/08/16 07:07:34;;;;;;;11.75;5.70;;;17.10;99.90;;;17.47;88.13;100905.16;5073939;28;20067;-74
2021/08/16 07:10:04;;;;;;;9.95;5.13;;;17.10;99.90;;;17.50;87.96;100904.22;5074149;28;20123;-73
2021/08/16 07:12:32;;;;;;;12.90;5.65;;;17.20;99.90;;;17.69;87.51;100900.88;5074329;28;20490;-69
2021/08/16 07:15:02;;;;;;;18.17;6.05;;;17.30;99.90;;;17.63;87.45;100894.88;5073762;28;20045;-73
2021/08/16 07:17:30;;;;;;;12.73;6.00;;;17.30;99.90;;;17.70;86.95;100897.28;5073737;28;20067;-74
2021/08/16 07:19:58;;;;;;;12.45;6.00;;;17.30;99.90;;;17.79;86.95;100898.75;5074227;28;20094;-74
2021/08/16 07:22:28;;;;;;;14.75;5.28;;;17.50;99.90;;;17.84;85.68;100903.06;5073658;28;20032;-73
2021/08/16 07:24:56;;;;;;;13.43;6.67;;;17.50;99.90;;;17.89;85.50;100909.13;5073561;28;20044;-73
2021/08/16 07:27:25;;;;;;;14.30;6.07;;;17.60;99.90;;;17.80;84.09;100906.75;5073548;28;20475;-73
2021/08/16 07:29:53;;;;;;;16.00;6.65;;;17.50;99.90;;;17.87;84.52;100910.97;5055806;28;20053;-72
2021/08/16 07:32:22;;;;;;;13.60;6.72;;;17.50;99.90;;;17.98;83.98;100913.31;5073467;28;20399;-72
2021/08/16 07:34:50;;;;;;;17.20;7.10;;;17.60;99.90;;;18.02;81.82;100909.59;5073742;28;20454;-75
2021/08/16 07:37:18;;;;;;;16.00;7.40;;;17.70;99.90;;;17.99;80.84;100921.28;5073145;28;20068;-73
2021/08/16 07:39:48;;;;;;;14.88;7.70;;;17.70;99.90;;;17.71;80.51;100831.28;5073740;28;20044;-73
2021/08/16 07:42:18;;;;;;;13.80;7.30;;;17.80;99.90;;;18.33;80.73;100918.28;5073392;28;20052;-74
2021/08/16 07:44:46;;;;;;;26.02;8.50;;;18.00;99.90;;;18.43;80.42;100922.44;5073528;28;20691;-73
2021/08/16 07:47:14;;;;;;;19.08;8.07;;;18.10;99.90;;;18.38;80.09;100919.00;5073502;28;20120;-73
2021/08/16 07:49:43;;;;;;;21.08;8.57;;;18.10;99.90;;;18.46;80.92;100922.34;5073531;28;20485;-71
2021/08/16 07:52:11;;;;;;;17.85;7.15;;;18.10;99.90;;;18.49;81.13;100938.28;5073211;28;20137;-72
2021/08/16 07:54:39;;;;;;;16.40;7.13;;;18.20;99.90;;;18.42;80.58;100936.75;5055423;28;20052;-69
2021/08/16 07:57:09;;;;;;;20.90;7.65;;;18.20;99.90;;;18.51;80.41;100943.56;5072383;28;20074;-71
2021/08/16 07:59:38;;;;;;;17.73;7.67;;;18.20;99.90;;;17.93;80.57;100835.81;5073053;28;20032;-73
2021/08/16 08:02:06;;;;;;;15.45;7.38;;;18.30;99.90;;;18.49;80.68;100954.34;5055376;28;20279;-72
2021/08/16 08:04:35;;;;;;;21.85;7.82;;;18.20;99.90;;;18.28;79.61;100938.13;5073091;28;20098;-72
2021/08/16 08:07:04;;;;;;;17.50;7.30;;;18.00;99.90;;;18.28;79.03;100952.41;5073592;28;20040;-74
2021/08/16 08:09:32;;;;;;;18.17;8.25;;;18.00;99.90;;;18.36;78.65;100947.66;5073244;28;20079;-79
2021/08/16 08:12:01;;;;;;;19.15;8.70;;;18.00;99.90;;;18.30;78.89;100945.19;5072958;28;20045;-69
2021/08/16 08:14:31;;;;;;;20.08;9.25;;;18.00;99.90;;;18.21;78.95;100956.22;5073208;28;20048;-71
2021/08/16 08:16:59;;;;;;;19.70;10.30;;;18.00;99.90;;;18.29;79.27;100961.31;5072872;28;20071;-78
2021/08/16 08:19:27;;;;;;;26.33;12.20;;;18.00;99.90;;;18.55;79.66;100964.84;5073377;28;20060;-77
2021/08/16 08:21:56;;;;;;;25.20;10.70;;;18.20;99.90;;;18.73;79.41;100974.03;5073198;28;20066;-78
2021/08/16 08:24:24;;;;;;;21.52;9.90;;;18.30;99.90;;;18.80;77.17;100992.53;5072958;28;20398;-72
2021/08/16 08:26:53;;;;;;;25.65;10.05;;;18.50;99.90;;;18.81;76.71;100967.47;5072858;28;20461;-72
2021/08/16 08:29:23;;;;;;;18.83;8.95;;;18.60;99.90;;;18.70;76.02;100968.78;5073412;28;20055;-72
2021/08/16 08:31:53;;;;;;;22.85;9.85;;;18.40;99.90;;;18.69;75.74;100970.59;5073176;28;20044;-72
2021/08/16 08:34:21;;;;;;;20.80;9.30;;;18.40;99.90;;;18.86;76.09;100986.94;5072830;28;20049;-74
2021/08/16 08:36:50;;;;;;;17.85;9.05;;;18.60;99.90;;;18.83;75.67;100987.03;5072741;28;20067;-76
2021/08/16 08:39:18;;;;;;;19.15;9.73;;;18.60;99.90;;;18.74;74.98;100987.38;5072918;28;20390;-74
2021/08/16 08:41:48;;;;;;;19.13;8.88;;;18.50;99.90;;;18.92;75.29;100993.88;5072713;28;20110;-80
2021/08/16 08:44:16;;;;;;;15.50;9.20;;;18.60;99.90;;;19.00;74.58;100991.81;5072658;28;20142;-80
2021/08/16 08:46:45;;;;;;;16.95;9.40;;;18.70;99.90;;;19.09;73.08;101006.66;5054899;28;20044;-78
2021/08/16 08:49:15;;;;;;;19.98;9.63;;;18.80;99.90;;;19.12;73.34;100998.53;5074645;28;20048;-73
2021/08/16 08:51:43;;;;;;;20.80;9.87;;;18.90;99.90;;;19.09;72.71;101003.97;5076741;28;20127;-76
2021/08/16 08:54:12;;;;;;;20.70;9.55;;;18.80;99.90;;;19.18;72.45;101000.97;5076422;28;20342;-70
2021/08/16 08:57:01;;;;;;;21.08;11.20;;;18.90;99.90;;;18.80;72.09;101005.06;5076501;28;20053;-81
2021/08/16 08:59:29;;;;;;;21.52;11.27;;;18.60;99.90;;;18.77;73.25;101011.41;5076405;28;20075;-77
2021/08/16 09:01:59;;;;;;;24.70;11.93;;;18.50;99.90;;;18.69;72.91;101008.13;5075790;28;20661;-85
2021/08/16 09:04:31;;;;;;;27.02;12.18;;;18.40;99.90;;;18.72;73.02;101018.72;5077586;28;20048;-80
2021/08/16 09:07:00;;;;;;;24.77;12.70;;;18.40;99.90;;;18.75;73.93;101018.63;5076785;28;20072;-75
2021/08/16 09:09:28;;;;;;;20.98;12.80;;;18.50;99.90;;;18.73;73.24;101022.28;5076524;28;20043;-81
2021/08/16 09:11:58;;;;;;;26.63;13.65;;;18.40;99.90;;;18.80;73.15;101027.38;5076091;28;20040;-84
2021/08/16 09:14:26;;;;;;;22.20;12.25;;;18.50;99.90;;;19.02;72.00;101035.53;5058400;28;20079;-76
2021/08/16 09:16:55;;;;;;;20.80;12.65;;;18.70;99.90;;;19.25;72.17;101032.88;5058653;28;20142;-76
2021/08/16 09:19:26;;;;;;;19.88;12.73;;;18.90;99.90;;;19.27;70.39;101031.00;5076211;28;20045;-85
2021/08/16 09:22:03;;;;;;;23.58;13.73;;;19.10;99.90;;;19.24;71.15;101036.47;5058573;28;20516;-79
2021/08/16 09:24:34;;;;;;;19.70;13.23;;;19.00;99.90;;;19.10;70.82;101043.28;5076257;28;20040;-86
2021/08/16 09:27:05;;;;;;;22.65;13.43;;;18.90;99.90;;;19.16;70.95;101052.00;5075856;28;20049;-80
2021/08/16 09:29:34;;;;;;;25.80;13.80;;;18.90;99.90;;;19.08;71.09;101051.41;5058134;28;20386;-85
2021/08/16 09:32:05;;;;;;;25.17;13.75;;;18.80;99.90;;;19.27;72.42;101068.56;5076006;28;20391;-86
2021/08/16 09:34:36;;;;;;;23.52;12.55;;;19.00;99.90;;;18.95;72.26;101057.25;5076096;28;20048;-76
2021/08/16 09:37:20;;;;;;;25.70;12.75;;;18.80;99.90;;;18.80;71.95;101055.97;5076012;28;20066;-80
2021/08/16 09:39:59;;;;;;;22.00;12.25;;;18.60;99.90;;;18.88;72.99;101057.47;5075685;28;20094;-80
2021/08/16 09:42:28;;;;;;;29.55;12.23;;;18.60;99.90;;;18.96;71.56;101070.59;5075660;28;20048;-76
2021/08/16 09:44:57;;;;;;;20.60;11.23;;;18.70;99.90;;;18.92;71.72;101056.44;5075486;28;20040;-74
2021/08/16 09:47:26;;;;;;;24.17;12.07;;;18.70;99.90;;;18.99;72.27;101054.38;5075356;28;20078;-77
2021/08/16 09:50:01;;;;;;;25.05;12.18;;;18.70;99.90;;;19.14;72.19;101058.34;5057799;28;20056;-85
2021/08/16 09:52:33;;;;;;;17.13;10.07;;;18.80;99.90;;;19.19;71.56;101043.81;5075397;28;20448;-80
2021/08/16 09:55:03;;;;;;;25.63;11.32;;;19.00;99.90;;;19.19;71.15;101064.41;5075767;28;20411;-79
2021/08/16 09:57:34;;;;;;;21.42;10.18;;;19.00;99.90;;;19.12;71.45;101055.72;5075606;28;20132;-77
2021/08/16 10:00:04;;;;;;;19.67;11.25;;;19.00;99.90;;;19.20;71.85;101088.47;5075083;28;20040;-76
2021/08/16 10:02:33;;;;;;;17.67;9.55;;;18.90;99.90;;;19.11;71.85;101083.44;5075810;28;20110;-79
2021/08/16 10:05:04;;;;;;;19.00;9.10;;;18.90;99.90;;;19.13;71.16;101091.44;5075528;28;20040;-81
2021/08/16 10:07:43;;;;;;;23.30;14.13;;;18.90;99.90;;;19.01;70.91;101087.38;5075196;28;20124;-73
2021/08/16 10:10:12;;;;;;;41.33;26.35;;;18.80;99.90;;;19.19;70.45;101091.22;5073836;28;20520;-78
2021/08/16 10:12:42;;;;;;;10.00;6.78;;;18.90;99.90;;;19.22;69.71;101097.34;5057273;28;20127;-78